sensor_id;sensor_type;location;lat;lon;timestamp;pressure;altitude;pressure_sealevel;temperature;humidity
3122;BME280;1571;52.524;14.104;2023-05-15T00:00:59;100654.72;;;9.36;96.88
3122;BME280;1571;52.524;14.104;2023-05-15T00:03:27;100644.16;;;9.20;97.36
3122;BME280;1571;52.524;14.104;2023-05-15T00:05:56;100644.94;;;9.22;97.78
3122;BME280;1571;52.524;14.104;2023-05-15T00:08:25;100637.25;;;9.17;98.13
3122;BME280;1571;52.524;14.104;2023-05-15T00:10:54;100641.78;;;9.15;98.43
3122;BME280;1571;52.524;14.104;2023-05-15T00:13:28;100639.91;;;9.17;98.40
3122;BME280;1571;52.524;14.104;2023-05-15T00:15:56;100637.34;;;9.16;98.72
3122;BME280;1571;52.524;14.104;2023-05-15T00:18:24;100635.16;;;9.08;98.95
3122;BME280;1571;52.524;14.104;2023-05-15T00:20:53;100631.41;;;8.96;99.55
3122;BME280;1571;52.524;14.104;2023-05-15T00:23:21;100620.78;;;9.12;99.52
3122;BME280;1571;52.524;14.104;2023-05-15T00:25:51;100624.47;;;9.10;99.53
3122;BME280;1571;52.524;14.104;2023-05-15T00:28:19;100622.88;;;8.91;100.00
3122;BME280;1571;52.524;14.104;2023-05-15T00:30:48;100618.94;;;8.99;100.00
3122;BME280;1571;52.524;14.104;2023-05-15T00:33:16;100618.44;;;8.92;100.00
3122;BME280;1571;52.524;14.104;2023-05-15T00:35:44;100609.25;;;8.83;100.00
3122;BME280;1571;52.524;14.104;2023-05-15T00:38:13;100603.06;;;8.99;100.00
3122;BME280;1571;52.524;14.104;2023-05-15T00:40:42;100606.13;;;8.91;100.00
3122;BME280;1571;52.524;14.104;2023-05-15T00:43:13;100595.38;;;8.94;100.00
3122;BME280;1571;52.524;14.104;2023-05-15T00:45:42;100602.22;;;8.82;100.00
3122;BME280;1571;52.524;14.104;2023-05-15T00:48:11;100592.31;;;8.86;100.00
3122;BME280;1571;52.524;14.104;2023-05-15T00:50:40;100598.66;;;8.83;100.00
3122;BME280;1571;52.524;14.104;2023-05-15T00:53:09;100593.00;;;8.73;100.00
3122;BME280;1571;52.524;14.104;2023-05-15T00:55:38;100596.56;;;8.42;99.85
3122;BME280;1571;52.524;14.104;2023-05-15T00:58:09;100592.69;;;8.48;100.00
3122;BME280;1571;52.524;14.104;2023-05-15T01:00:39;100593.41;;;8.51;100.00
3122;BME280;1571;52.524;14.104;2023-05-15T01:03:08;100590.91;;;8.48;100.00
3122;BME280;1571;52.524;14.104;2023-05-15T01:05:36;100591.91;;;8.62;100.00
3122;BME280;1571;52.524;14.104;2023-05-15T01:08:16;100591.34;;;8.57;100.00
3122;BME280;1571;52.524;14.104;2023-05-15T01:10:47;100586.22;;;8.53;99.46
3122;BME280;1571;52.524;14.104;2023-05-15T01:13:17;100585.50;;;8.34;99.38
3122;BME280;1571;52.524;14.104;2023-05-15T01:15:48;100588.41;;;8.29;99.65
3122;BME280;1571;52.524;14.104;2023-05-15T01:18:16;100590.09;;;8.30;100.00
3122;BME280;1571;52.524;14.104;2023-05-15T01:21:10;100587.88;;;8.23;100.00
3122;BME280;1571;52.524;14.104;2023-05-15T01:23:52;100582.00;;;8.18;100.00
3122;BME280;1571;52.524;14.104;2023-05-15T01:26:50;100585.84;;;8.28;100.00
3122;BME280;1571;52.524;14.104;2023-05-15T01:29:28;100570.16;;;8.25;100.00
3122;BME280;1571;52.524;14.104;2023-05-15T01:32:01;100580.41;;;8.15;100.00
3122;BME280;1571;52.524;14.104;2023-05-15T01:34:33;100587.28;;;8.18;100.00
3122;BME280;1571;52.524;14.104;2023-05-15T01:37:06;100589.75;;;8.21;100.00
3122;BME280;1571;52.524;14.104;2023-05-15T01:39:37;100588.53;;;7.95;100.00
3122;BME280;1571;52.524;14.104;2023-05-15T01:42:08;100593.13;;;7.91;100.00
3122;BME280;1571;52.524;14.104;2023-05-15T01:44:43;100588.63;;;7.93;100.00
3122;BME280;1571;52.524;14.104;2023-05-15T01:47:14;100585.63;;;7.99;100.00
3122;BME280;1571;52.524;14.104;2023-05-15T01:49:46;100578.22;;;8.06;100.00
3122;BME280;1571;52.524;14.104;2023-05-15T01:52:18;100587.44;;;8.14;100.00
3122;BME280;1571;52.524;14.104;2023-05-15T01:54:48;100576.28;;;8.09;100.00
3122;BME280;1571;52.524;14.104;2023-05-15T01:57:17;100571.59;;;8.14;100.00
3122;BME280;1571;52.524;14.104;2023-05-15T01:59:48;100572.69;;;8.10;100.00
3122;BME280;1571;52.524;14.104;2023-05-15T02:02:18;100568.66;;;8.03;100.00
3122;BME280;1571;52.524;14.104;2023-05-15T02:04:48;100570.94;;;7.78;100.00
3122;BME280;1571;52.524;14.104;2023-05-15T02:07:19;100578.00;;;7.44;100.00
3122;BME280;1571;52.524;14.104;2023-05-15T02:09:48;100568.78;;;7.35;100.00
3122;BME280;1571;52.524;14.104;2023-05-15T02:12:19;100567.22;;;7.82;100.00
3122;BME280;1571;52.524;14.104;2023-05-15T02:14:50;100559.34;;;7.80;100.00
3122;BME280;1571;52.524;14.104;2023-05-15T02:17:19;100547.16;;;7.78;100.00
3122;BME280;1571;52.524;14.104;2023-05-15T02:19:48;100547.09;;;7.95;100.00
3122;BME280;1571;52.524;14.104;2023-05-15T02:22:17;100554.09;;;8.12;100.00
3122;BME280;1571;52.524;14.104;2023-05-15T02:24:45;100536.19;;;8.01;100.00
3122;BME280;1571;52.524;14.104;2023-05-15T02:27:20;100537.31;;;7.97;100.00
3122;BME280;1571;52.524;14.104;2023-05-15T02:29:59;100533.91;;;7.95;100.00
3122;BME280;1571;52.524;14.104;2023-05-15T02:32:36;100526.09;;;7.76;100.00
3122;BME280;1571;52.524;14.104;2023-05-15T02:35:15;100529.00;;;7.87;100.00
3122;BME280;1571;52.524;14.104;2023-05-15T02:37:48;100528.75;;;7.76;100.00
3122;BME280;1571;52.524;14.104;2023-05-15T02:40:19;100531.06;;;7.98;100.00
3122;BME280;1571;52.524;14.104;2023-05-15T02:42:50;100522.53;;;7.93;100.00
3122;BME280;1571;52.524;14.104;2023-05-15T02:45:22;100513.34;;;8.00;100.00
3122;BME280;1571;52.524;14.104;2023-05-15T02:47:52;100512.47;;;7.84;100.00
3122;BME280;1571;52.524;14.104;2023-05-15T02:50:21;100513.66;;;7.94;100.00
3122;BME280;1571;52.524;14.104;2023-05-15T02:52:49;100508.44;;;7.77;100.00
3122;BME280;1571;52.524;14.104;2023-05-15T02:55:18;100507.78;;;7.73;100.00
3122;BME280;1571;52.524;14.104;2023-05-15T02:57:46;100501.38;;;7.61;100.00
3122;BME280;1571;52.524;14.104;2023-05-15T03:00:15;100504.16;;;7.58;100.00
3122;BME280;1571;52.524;14.104;2023-05-15T03:02:44;100505.34;;;7.19;100.00
3122;BME280;1571;52.524;14.104;2023-05-15T03:05:13;100497.66;;;6.97;100.00
3122;BME280;1571;52.524;14.104;2023-05-15T03:07:41;100498.59;;;7.47;100.00
3122;BME280;1571;52.524;14.104;2023-05-15T03:10:09;100499.03;;;7.55;100.00
3122;BME280;1571;52.524;14.104;2023-05-15T03:12:38;100500.59;;;7.26;100.00
3122;BME280;1571;52.524;14.104;2023-05-15T03:15:07;100493.47;;;7.11;100.00
3122;BME280;1571;52.524;14.104;2023-05-15T03:17:35;100496.47;;;7.20;100.00
3122;BME280;1571;52.524;14.104;2023-05-15T03:20:06;100498.09;;;7.56;100.00
3122;BME280;1571;52.524;14.104;2023-05-15T03:22:35;100491.16;;;7.87;100.00
3122;BME280;1571;52.524;14.104;2023-05-15T03:25:04;100489.09;;;7.92;100.00
3122;BME280;1571;52.524;14.104;2023-05-15T03:27:33;100486.31;;;7.79;100.00
3122;BME280;1571;52.524;14.104;2023-05-15T03:30:01;100483.75;;;7.78;100.00
3122;BME280;1571;52.524;14.104;2023-05-15T03:32:30;100485.13;;;7.51;100.00
3122;BME280;1571;52.524;14.104;2023-05-15T03:34:58;100490.88;;;7.76;100.00
3122;BME280;1571;52.524;14.104;2023-05-15T03:37:28;100481.25;;;8.22;100.00
3122;BME280;1571;52.524;14.104;2023-05-15T03:39:57;100489.06;;;8.40;100.00
3122;BME280;1571;52.524;14.104;2023-05-15T03:42:25;100475.94;;;8.54;100.00
3122;BME280;1571;52.524;14.104;2023-05-15T03:44:53;100482.16;;;8.37;100.00
3122;BME280;1571;52.524;14.104;2023-05-15T03:47:22;100482.63;;;8.29;100.00
3122;BME280;1571;52.524;14.104;2023-05-15T03:49:52;100479.94;;;8.61;100.00
3122;BME280;1571;52.524;14.104;2023-05-15T03:52:20;100474.56;;;8.63;100.00
3122;BME280;1571;52.524;14.104;2023-05-15T03:54:50;100470.75;;;8.67;100.00
3122;BME280;1571;52.524;14.104;2023-05-15T03:57:18;100475.22;;;8.66;100.00
3122;BME280;1571;52.524;14.104;2023-05-15T03:59:46;100478.28;;;8.74;100.00
3122;BME280;1571;52.524;14.104;2023-05-15T04:02:14;100480.06;;;8.74;100.00
3122;BME280;1571;52.524;14.104;2023-05-15T04:04:43;100472.13;;;8.74;100.00
3122;BME280;1571;52.524;14.104;2023-05-15T04:07:11;100469.75;;;8.69;100.00
3122;BME280;1571;52.524;14.104;2023-05-15T04:09:39;100469.72;;;8.85;100.00
3122;BME280;1571;52.524;14.104;2023-05-15T04:12:09;100464.91;;;8.92;100.00
3122;BME280;1571;52.524;14.104;2023-05-15T04:14:37;100467.53;;;8.92;100.00
3122;BME280;1571;52.524;14.104;2023-05-15T04:17:07;100470.28;;;8.90;100.00
3122;BME280;1571;52.524;14.104;2023-05-15T04:19:36;100469.16;;;8.94;100.00
3122;BME280;1571;52.524;14.104;2023-05-15T04:22:05;100456.47;;;9.14;100.00
3122;BME280;1571;52.524;14.104;2023-05-15T04:24:33;100452.63;;;9.34;100.00
3122;BME280;1571;52.524;14.104;2023-05-15T04:27:02;100457.63;;;9.38;100.00
3122;BME280;1571;52.524;14.104;2023-05-15T04:29:32;100468.69;;;9.02;100.00
3122;BME280;1571;52.524;14.104;2023-05-15T04:32:00;100460.09;;;9.13;100.00
3122;BME280;1571;52.524;14.104;2023-05-15T04:34:29;100465.59;;;9.24;100.00
3122;BME280;1571;52.524;14.104;2023-05-15T04:36:57;100463.50;;;9.15;100.00
3122;BME280;1571;52.524;14.104;2023-05-15T04:39:25;100466.25;;;9.42;100.00
3122;BME280;1571;52.524;14.104;2023-05-15T04:41:53;100460.09;;;9.13;100.00
3122;BME280;1571;52.524;14.104;2023-05-15T04:44:22;100459.88;;;9.02;100.00
3122;BME280;1571;52.524;14.104;2023-05-15T04:46:51;100457.25;;;9.02;100.00
3122;BME280;1571;52.524;14.104;2023-05-15T04:49:19;100451.31;;;9.12;100.00
3122;BME280;1571;52.524;14.104;2023-05-15T04:51:48;100454.63;;;9.30;100.00
3122;BME280;1571;52.524;14.104;2023-05-15T04:54:16;100448.59;;;9.70;100.00
3122;BME280;1571;52.524;14.104;2023-05-15T04:56:44;100449.00;;;9.78;100.00
3122;BME280;1571;52.524;14.104;2023-05-15T04:59:12;100450.50;;;9.68;100.00
3122;BME280;1571;52.524;14.104;2023-05-15T05:01:41;100443.09;;;9.87;100.00
3122;BME280;1571;52.524;14.104;2023-05-15T05:04:11;100436.19;;;9.70;100.00
3122;BME280;1571;52.524;14.104;2023-05-15T05:06:40;100441.63;;;9.54;100.00
3122;BME280;1571;52.524;14.104;2023-05-15T05:09:09;100440.59;;;9.57;100.00
3122;BME280;1571;52.524;14.104;2023-05-15T05:11:37;100436.97;;;9.72;100.00
3122;BME280;1571;52.524;14.104;2023-05-15T05:14:09;100440.59;;;9.98;100.00
3122;BME280;1571;52.524;14.104;2023-05-15T05:16:38;100435.44;;;10.10;100.00
3122;BME280;1571;52.524;14.104;2023-05-15T05:19:06;100451.13;;;9.86;100.00
3122;BME280;1571;52.524;14.104;2023-05-15T05:21:36;100442.56;;;10.09;100.00
3122;BME280;1571;52.524;14.104;2023-05-15T05:24:05;100432.56;;;9.86;100.00
3122;BME280;1571;52.524;14.104;2023-05-15T05:26:33;100437.28;;;9.95;100.00
3122;BME280;1571;52.524;14.104;2023-05-15T05:29:01;100432.59;;;10.13;100.00
3122;BME280;1571;52.524;14.104;2023-05-15T05:31:29;100432.34;;;10.03;100.00
3122;BME280;1571;52.524;14.104;2023-05-15T05:33:58;100427.94;;;10.16;100.00
3122;BME280;1571;52.524;14.104;2023-05-15T05:36:26;100427.91;;;10.31;100.00
3122;BME280;1571;52.524;14.104;2023-05-15T05:38:56;100426.97;;;10.45;100.00
3122;BME280;1571;52.524;14.104;2023-05-15T05:41:25;100426.38;;;10.67;100.00
3122;BME280;1571;52.524;14.104;2023-05-15T05:43:56;100435.72;;;10.59;100.00
3122;BME280;1571;52.524;14.104;2023-05-15T05:46:24;100427.97;;;10.69;100.00
3122;BME280;1571;52.524;14.104;2023-05-15T05:48:53;100424.09;;;11.00;100.00
3122;BME280;1571;52.524;14.104;2023-05-15T05:51:21;100421.72;;;11.34;100.00
3122;BME280;1571;52.524;14.104;2023-05-15T05:53:49;100420.69;;;11.24;100.00
3122;BME280;1571;52.524;14.104;2023-05-15T05:56:19;100406.50;;;11.36;100.00
3122;BME280;1571;52.524;14.104;2023-05-15T05:58:48;100407.19;;;11.64;100.00
3122;BME280;1571;52.524;14.104;2023-05-15T06:01:17;100404.16;;;11.94;100.00
3122;BME280;1571;52.524;14.104;2023-05-15T06:03:45;100394.38;;;11.95;100.00
3122;BME280;1571;52.524;14.104;2023-05-15T06:06:13;100390.00;;;12.18;100.00
3122;BME280;1571;52.524;14.104;2023-05-15T06:08:42;100397.66;;;11.85;100.00
3122;BME280;1571;52.524;14.104;2023-05-15T06:11:10;100396.56;;;12.25;99.76
3122;BME280;1571;52.524;14.104;2023-05-15T06:13:40;100386.06;;;12.35;98.12
3122;BME280;1571;52.524;14.104;2023-05-15T06:16:09;100386.47;;;12.17;98.18
3122;BME280;1571;52.524;14.104;2023-05-15T06:18:37;100377.22;;;12.23;99.09
3122;BME280;1571;52.524;14.104;2023-05-15T06:21:05;100370.88;;;12.13;98.91
3122;BME280;1571;52.524;14.104;2023-05-15T06:23:34;100377.78;;;11.91;98.78
3122;BME280;1571;52.524;14.104;2023-05-15T06:26:03;100376.91;;;11.91;98.79
3122;BME280;1571;52.524;14.104;2023-05-15T06:28:32;100366.22;;;12.03;97.81
3122;BME280;1571;52.524;14.104;2023-05-15T06:31:01;100361.69;;;11.93;97.12
3122;BME280;1571;52.524;14.104;2023-05-15T06:33:30;100355.44;;;12.29;96.81
3122;BME280;1571;52.524;14.104;2023-05-15T06:35:58;100364.91;;;12.09;96.06
3122;BME280;1571;52.524;14.104;2023-05-15T06:38:27;100359.72;;;12.07;96.22
3122;BME280;1571;52.524;14.104;2023-05-15T06:40:55;100355.09;;;11.98;96.45
3122;BME280;1571;52.524;14.104;2023-05-15T06:43:24;100355.22;;;12.32;96.00
3122;BME280;1571;52.524;14.104;2023-05-15T06:45:52;100359.69;;;11.96;96.14
3122;BME280;1571;52.524;14.104;2023-05-15T06:48:22;100349.34;;;12.16;96.97
3122;BME280;1571;52.524;14.104;2023-05-15T06:50:50;100345.41;;;12.33;97.11
3122;BME280;1571;52.524;14.104;2023-05-15T06:53:18;100333.97;;;12.55;96.77
3122;BME280;1571;52.524;14.104;2023-05-15T06:55:47;100323.91;;;12.47;95.85
3122;BME280;1571;52.524;14.104;2023-05-15T06:58:15;100329.75;;;12.52;97.17
3122;BME280;1571;52.524;14.104;2023-05-15T07:00:44;100327.66;;;12.56;96.35
3122;BME280;1571;52.524;14.104;2023-05-15T07:03:12;100318.63;;;12.92;95.53
3122;BME280;1571;52.524;14.104;2023-05-15T07:05:44;100311.84;;;13.10;94.89
3122;BME280;1571;52.524;14.104;2023-05-15T07:08:12;100310.97;;;13.21;94.15
3122;BME280;1571;52.524;14.104;2023-05-15T07:10:41;100305.72;;;13.65;92.75
3122;BME280;1571;52.524;14.104;2023-05-15T07:13:09;100300.97;;;14.01;91.20
3122;BME280;1571;52.524;14.104;2023-05-15T07:15:38;100292.25;;;14.20;89.82
3122;BME280;1571;52.524;14.104;2023-05-15T07:18:06;100294.34;;;14.37;87.74
3122;BME280;1571;52.524;14.104;2023-05-15T07:20:34;100291.63;;;13.95;86.95
3122;BME280;1571;52.524;14.104;2023-05-15T07:23:05;100281.41;;;14.00;87.87
3122;BME280;1571;52.524;14.104;2023-05-15T07:25:33;100282.13;;;14.65;86.01
3122;BME280;1571;52.524;14.104;2023-05-15T07:28:01;100268.84;;;14.75;83.81
3122;BME280;1571;52.524;14.104;2023-05-15T07:30:29;100270.88;;;14.62;82.46
3122;BME280;1571;52.524;14.104;2023-05-15T07:32:58;100275.19;;;14.84;81.62
3122;BME280;1571;52.524;14.104;2023-05-15T07:35:27;100274.28;;;15.04;79.19
3122;BME280;1571;52.524;14.104;2023-05-15T07:37:55;100274.78;;;14.57;78.73
3122;BME280;1571;52.524;14.104;2023-05-15T07:40:25;100282.50;;;14.82;79.23
3122;BME280;1571;52.524;14.104;2023-05-15T07:42:53;100280.59;;;15.03;78.74
3122;BME280;1571;52.524;14.104;2023-05-15T07:45:21;100273.91;;;15.18;78.67
3122;BME280;1571;52.524;14.104;2023-05-15T07:47:50;100278.56;;;14.86;78.54
3122;BME280;1571;52.524;14.104;2023-05-15T07:50:19;100279.84;;;15.22;77.03
3122;BME280;1571;52.524;14.104;2023-05-15T07:52:47;100274.50;;;15.51;75.76
3122;BME280;1571;52.524;14.104;2023-05-15T07:55:15;100279.03;;;15.51;74.99
3122;BME280;1571;52.524;14.104;2023-05-15T07:57:45;100280.19;;;15.68;74.68
3122;BME280;1571;52.524;14.104;2023-05-15T08:00:20;100275.38;;;15.52;72.04
3122;BME280;1571;52.524;14.104;2023-05-15T08:02:48;100276.22;;;15.52;72.63
3122;BME280;1571;52.524;14.104;2023-05-15T08:05:17;100273.94;;;15.38;73.49
3122;BME280;1571;52.524;14.104;2023-05-15T08:07:45;100275.94;;;15.65;72.62
3122;BME280;1571;52.524;14.104;2023-05-15T08:10:13;100272.41;;;15.65;71.95
3122;BME280;1571;52.524;14.104;2023-05-15T08:12:42;100283.41;;;15.61;73.45
3122;BME280;1571;52.524;14.104;2023-05-15T08:15:13;100286.97;;;15.81;72.85
3122;BME280;1571;52.524;14.104;2023-05-15T08:17:42;100279.34;;;15.87;72.55
3122;BME280;1571;52.524;14.104;2023-05-15T08:20:11;100274.28;;;15.93;71.81
3122;BME280;1571;52.524;14.104;2023-05-15T08:22:40;100276.94;;;16.13;71.40
3122;BME280;1571;52.524;14.104;2023-05-15T08:25:08;100259.84;;;16.33;70.64
3122;BME280;1571;52.524;14.104;2023-05-15T08:27:36;100259.41;;;16.38;70.06
3122;BME280;1571;52.524;14.104;2023-05-15T08:30:06;100268.28;;;16.38;69.93
3122;BME280;1571;52.524;14.104;2023-05-15T08:32:35;100267.50;;;16.28;70.55
3122;BME280;1571;52.524;14.104;2023-05-15T08:35:05;100261.50;;;16.54;69.52
3122;BME280;1571;52.524;14.104;2023-05-15T08:37:34;100265.75;;;16.37;69.13
3122;BME280;1571;52.524;14.104;2023-05-15T08:40:03;100279.06;;;15.99;70.62
3122;BME280;1571;52.524;14.104;2023-05-15T08:42:37;100268.03;;;16.41;69.80
3122;BME280;1571;52.524;14.104;2023-05-15T08:45:11;100262.53;;;16.33;69.64
3122;BME280;1571;52.524;14.104;2023-05-15T08:47:41;100261.97;;;16.39;69.09
3122;BME280;1571;52.524;14.104;2023-05-15T08:50:11;100265.19;;;16.53;69.29
3122;BME280;1571;52.524;14.104;2023-05-15T08:52:41;100262.31;;;16.54;67.53
3122;BME280;1571;52.524;14.104;2023-05-15T08:55:10;100264.59;;;16.49;67.87
3122;BME280;1571;52.524;14.104;2023-05-15T08:57:39;100260.25;;;16.38;68.19
3122;BME280;1571;52.524;14.104;2023-05-15T09:00:09;100264.66;;;16.30;69.01
3122;BME280;1571;52.524;14.104;2023-05-15T09:02:42;100261.53;;;16.34;69.03
3122;BME280;1571;52.524;14.104;2023-05-15T09:05:10;100259.72;;;16.25;69.33
3122;BME280;1571;52.524;14.104;2023-05-15T09:07:38;100253.41;;;16.26;69.52
3122;BME280;1571;52.524;14.104;2023-05-15T09:10:08;100252.53;;;16.35;69.09
3122;BME280;1571;52.524;14.104;2023-05-15T09:12:41;100247.00;;;16.37;67.96
3122;BME280;1571;52.524;14.104;2023-05-15T09:15:11;100257.66;;;15.99;69.23
3122;BME280;1571;52.524;14.104;2023-05-15T09:17:41;100262.13;;;16.28;68.90
3122;BME280;1571;52.524;14.104;2023-05-15T09:20:24;100248.75;;;16.65;67.35
3122;BME280;1571;52.524;14.104;2023-05-15T09:22:53;100247.59;;;16.78;67.61
3122;BME280;1571;52.524;14.104;2023-05-15T09:25:37;100257.66;;;17.03;66.44
3122;BME280;1571;52.524;14.104;2023-05-15T09:28:07;100258.97;;;16.90;65.57
3122;BME280;1571;52.524;14.104;2023-05-15T09:30:37;100266.22;;;16.70;66.22
3122;BME280;1571;52.524;14.104;2023-05-15T09:33:07;100259.16;;;16.78;67.29
3122;BME280;1571;52.524;14.104;2023-05-15T09:35:37;100255.72;;;16.96;66.99
3122;BME280;1571;52.524;14.104;2023-05-15T09:38:08;100264.94;;;16.83;67.10
3122;BME280;1571;52.524;14.104;2023-05-15T09:40:38;100261.16;;;17.04;67.40
3122;BME280;1571;52.524;14.104;2023-05-15T09:43:09;100258.28;;;17.15;67.31
3122;BME280;1571;52.524;14.104;2023-05-15T09:45:37;100258.88;;;16.81;66.73
3122;BME280;1571;52.524;14.104;2023-05-15T09:48:07;100261.44;;;17.28;67.33
3122;BME280;1571;52.524;14.104;2023-05-15T09:50:38;100260.00;;;17.34;67.00
3122;BME280;1571;52.524;14.104;2023-05-15T09:53:10;100251.66;;;17.37;67.34
3122;BME280;1571;52.524;14.104;2023-05-15T09:55:40;100248.25;;;17.17;67.75
3122;BME280;1571;52.524;14.104;2023-05-15T09:58:09;100246.84;;;17.59;66.74
3122;BME280;1571;52.524;14.104;2023-05-15T10:00:38;100237.41;;;17.73;66.81
3122;BME280;1571;52.524;14.104;2023-05-15T10:03:17;100238.34;;;17.99;65.17
3122;BME280;1571;52.524;14.104;2023-05-15T10:05:46;100240.63;;;17.94;66.95
3122;BME280;1571;52.524;14.104;2023-05-15T10:08:15;100235.84;;;18.24;65.05
3122;BME280;1571;52.524;14.104;2023-05-15T10:10:53;100227.75;;;17.98;63.09
3122;BME280;1571;52.524;14.104;2023-05-15T10:13:21;100220.81;;;18.13;62.47
3122;BME280;1571;52.524;14.104;2023-05-15T10:15:50;100228.31;;;18.09;62.44
3122;BME280;1571;52.524;14.104;2023-05-15T10:18:23;100233.25;;;17.96;64.04
3122;BME280;1571;52.524;14.104;2023-05-15T10:20:54;100223.56;;;18.03;61.72
3122;BME280;1571;52.524;14.104;2023-05-15T10:23:24;100233.25;;;17.96;62.21
3122;BME280;1571;52.524;14.104;2023-05-15T10:25:56;100229.41;;;17.99;62.38
3122;BME280;1571;52.524;14.104;2023-05-15T10:28:29;100234.31;;;18.03;62.03
3122;BME280;1571;52.524;14.104;2023-05-15T10:30:59;100225.91;;;17.62;63.01
3122;BME280;1571;52.524;14.104;2023-05-15T10:33:30;100222.69;;;17.95;62.50
3122;BME280;1571;52.524;14.104;2023-05-15T10:36:00;100220.78;;;17.87;62.77
3122;BME280;1571;52.524;14.104;2023-05-15T10:38:29;100221.91;;;17.66;62.86
3122;BME280;1571;52.524;14.104;2023-05-15T10:40:59;100224.44;;;17.50;63.64
3122;BME280;1571;52.524;14.104;2023-05-15T10:43:43;100215.72;;;17.84;62.85
3122;BME280;1571;52.524;14.104;2023-05-15T10:46:12;100212.31;;;17.64;64.40
3122;BME280;1571;52.524;14.104;2023-05-15T10:48:42;100221.59;;;17.52;63.60
3122;BME280;1571;52.524;14.104;2023-05-15T10:51:15;100213.31;;;17.45;63.43
3122;BME280;1571;52.524;14.104;2023-05-15T10:53:44;100206.38;;;17.52;63.03
3122;BME280;1571;52.524;14.104;2023-05-15T10:56:13;100202.91;;;17.60;63.74
3122;BME280;1571;52.524;14.104;2023-05-15T10:58:44;100197.28;;;17.89;63.32
3122;BME280;1571;52.524;14.104;2023-05-15T11:01:29;100189.25;;;18.15;61.42
3122;BME280;1571;52.524;14.104;2023-05-15T11:04:11;100183.44;;;18.28;60.54
3122;BME280;1571;52.524;14.104;2023-05-15T11:06:40;100185.50;;;18.34;61.35
3122;BME280;1571;52.524;14.104;2023-05-15T11:09:32;100179.91;;;18.54;61.41
3122;BME280;1571;52.524;14.104;2023-05-15T11:12:01;100182.72;;;18.86;59.83
3122;BME280;1571;52.524;14.104;2023-05-15T11:14:30;100177.22;;;18.62;60.29
3122;BME280;1571;52.524;14.104;2023-05-15T11:17:00;100181.06;;;18.51;60.94
3122;BME280;1571;52.524;14.104;2023-05-15T11:19:53;100180.19;;;18.50;61.00
3122;BME280;1571;52.524;14.104;2023-05-15T11:22:26;100181.03;;;18.17;61.78
3122;BME280;1571;52.524;14.104;2023-05-15T11:24:58;100181.78;;;18.27;63.25
3122;BME280;1571;52.524;14.104;2023-05-15T11:27:29;100174.59;;;18.09;62.46
3122;BME280;1571;52.524;14.104;2023-05-15T11:30:06;100176.88;;;17.96;62.81
3122;BME280;1571;52.524;14.104;2023-05-15T11:32:43;100178.34;;;17.73;62.35
3122;BME280;1571;52.524;14.104;2023-05-15T11:35:17;100175.47;;;17.30;62.44
3122;BME280;1571;52.524;14.104;2023-05-15T11:37:47;100174.75;;;17.28;63.22
3122;BME280;1571;52.524;14.104;2023-05-15T11:40:21;100177.78;;;17.43;61.74
3122;BME280;1571;52.524;14.104;2023-05-15T11:43:05;100175.69;;;17.55;61.74
3122;BME280;1571;52.524;14.104;2023-05-15T11:45:36;100175.28;;;17.85;62.00
3122;BME280;1571;52.524;14.104;2023-05-15T11:48:06;100185.97;;;18.03;61.56
3122;BME280;1571;52.524;14.104;2023-05-15T11:50:40;100197.44;;;17.69;61.87
3122;BME280;1571;52.524;14.104;2023-05-15T11:53:09;100199.00;;;17.18;61.12
3122;BME280;1571;52.524;14.104;2023-05-15T11:55:39;100192.13;;;17.06;60.25
3122;BME280;1571;52.524;14.104;2023-05-15T11:58:11;100197.13;;;17.19;59.82
3122;BME280;1571;52.524;14.104;2023-05-15T12:00:40;100199.75;;;17.28;59.94
3122;BME280;1571;52.524;14.104;2023-05-15T12:03:15;100205.91;;;17.39;60.20
3122;BME280;1571;52.524;14.104;2023-05-15T12:05:46;100206.50;;;17.33;59.77
3122;BME280;1571;52.524;14.104;2023-05-15T12:08:25;100192.41;;;17.48;59.26
3122;BME280;1571;52.524;14.104;2023-05-15T12:10:58;100205.44;;;17.61;60.92
3122;BME280;1571;52.524;14.104;2023-05-15T12:13:26;100197.06;;;17.28;61.73
3122;BME280;1571;52.524;14.104;2023-05-15T12:15:55;100209.94;;;16.42;63.82
3122;BME280;1571;52.524;14.104;2023-05-15T12:18:24;100212.44;;;16.43;64.93
3122;BME280;1571;52.524;14.104;2023-05-15T12:20:53;100207.50;;;16.01;67.62
3122;BME280;1571;52.524;14.104;2023-05-15T12:23:23;100234.25;;;15.43;70.10
3122;BME280;1571;52.524;14.104;2023-05-15T12:25:56;100215.63;;;15.12;74.11
3122;BME280;1571;52.524;14.104;2023-05-15T12:28:26;100199.28;;;14.96;74.95
3122;BME280;1571;52.524;14.104;2023-05-15T12:30:55;100171.66;;;14.86;78.10
3122;BME280;1571;52.524;14.104;2023-05-15T12:33:25;100172.47;;;14.57;77.89
3122;BME280;1571;52.524;14.104;2023-05-15T12:35:55;100161.16;;;14.53;78.39
3122;BME280;1571;52.524;14.104;2023-05-15T12:38:27;100150.47;;;14.94;80.69
3122;BME280;1571;52.524;14.104;2023-05-15T12:40:56;100148.78;;;15.03;79.15
3122;BME280;1571;52.524;14.104;2023-05-15T12:43:25;100148.66;;;15.04;79.76
3122;BME280;1571;52.524;14.104;2023-05-15T12:45:55;100157.03;;;14.80;81.10
3122;BME280;1571;52.524;14.104;2023-05-15T12:48:28;100160.72;;;14.89;80.75
3122;BME280;1571;52.524;14.104;2023-05-15T12:51:04;100154.56;;;14.98;80.45
3122;BME280;1571;52.524;14.104;2023-05-15T12:53:34;100153.97;;;14.94;79.55
3122;BME280;1571;52.524;14.104;2023-05-15T12:56:06;100149.50;;;15.14;78.90
3122;BME280;1571;52.524;14.104;2023-05-15T12:58:35;100156.25;;;15.09;79.60
3122;BME280;1571;52.524;14.104;2023-05-15T13:01:04;100157.66;;;15.13;80.13
3122;BME280;1571;52.524;14.104;2023-05-15T13:03:33;100165.00;;;15.11;80.85
3122;BME280;1571;52.524;14.104;2023-05-15T13:06:01;100169.75;;;15.07;80.43
3122;BME280;1571;52.524;14.104;2023-05-15T13:08:31;100169.59;;;14.89;80.77
3122;BME280;1571;52.524;14.104;2023-05-15T13:10:59;100176.41;;;14.63;81.54
3122;BME280;1571;52.524;14.104;2023-05-15T13:13:44;100167.97;;;14.67;83.75
3122;BME280;1571;52.524;14.104;2023-05-15T13:16:19;100158.09;;;14.58;86.25